sensor_id;sensor_type;location;lat;lon;timestamp;temperature;humidity
30865;DHT22;17574;49.418;11.038;2023-03-20T00:00:41;9.90;96.70
30865;DHT22;17574;49.418;11.038;2023-03-20T00:03:12;9.90;96.50
30865;DHT22;17574;49.418;11.038;2023-03-20T00:05:39;9.90;96.30
30865;DHT22;17574;49.418;11.038;2023-03-20T00:08:06;9.90;96.40
30865;DHT22;17574;49.418;11.038;2023-03-20T00:10:40;9.90;96.00
30865;DHT22;17574;49.418;11.038;2023-03-20T00:13:10;9.80;95.70
30865;DHT22;17574;49.418;11.038;2023-03-20T00:15:38;9.80;95.60
30865;DHT22;17574;49.418;11.038;2023-03-20T00:18:17;9.80;95.40
30865;DHT22;17574;49.418;11.038;2023-03-20T00:20:44;9.70;95.30
30865;DHT22;17574;49.418;11.038;2023-03-20T00:23:12;9.80;95.40
30865;DHT22;17574;49.418;11.038;2023-03-20T00:25:39;9.70;95.30
30865;DHT22;17574;49.418;11.038;2023-03-20T00:30:39;9.70;95.30
30865;DHT22;17574;49.418;11.038;2023-03-20T00:33:07;9.70;95.70
30865;DHT22;17574;49.418;11.038;2023-03-20T00:35:35;9.70;96.10
30865;DHT22;17574;49.418;11.038;2023-03-20T00:38:02;9.80;96.20
30865;DHT22;17574;49.418;11.038;2023-03-20T00:40:29;9.80;96.10
30865;DHT22;17574;49.418;11.038;2023-03-20T00:42:58;9.70;95.90
30865;DHT22;17574;49.418;11.038;2023-03-20T00:45:25;9.70;96.20
30865;DHT22;17574;49.418;11.038;2023-03-20T00:47:52;9.80;96.40
30865;DHT22;17574;49.418;11.038;2023-03-20T00:50:20;9.70;96.50
30865;DHT22;17574;49.418;11.038;2023-03-20T00:52:47;9.70;96.70
30865;DHT22;17574;49.418;11.038;2023-03-20T00:55:14;9.70;96.80
30865;DHT22;17574;49.418;11.038;2023-03-20T00:57:42;9.70;96.80
30865;DHT22;17574;49.418;11.038;2023-03-20T01:00:18;9.70;96.70
30865;DHT22;17574;49.418;11.038;2023-03-20T01:02:45;9.70;96.40
30865;DHT22;17574;49.418;11.038;2023-03-20T01:05:13;9.80;96.40
30865;DHT22;17574;49.418;11.038;2023-03-20T01:07:40;9.70;96.60
30865;DHT22;17574;49.418;11.038;2023-03-20T01:10:07;9.70;96.70
30865;DHT22;17574;49.418;11.038;2023-03-20T01:12:33;10.10;96.50
30865;DHT22;17574;49.418;11.038;2023-03-20T01:15:00;9.70;96.90
30865;DHT22;17574;49.418;11.038;2023-03-20T01:17:27;9.70;96.80
30865;DHT22;17574;49.418;11.038;2023-03-20T01:19:55;9.70;97.00
30865;DHT22;17574;49.418;11.038;2023-03-20T01:22:21;9.70;97.00
30865;DHT22;17574;49.418;11.038;2023-03-20T01:24:48;9.70;96.80
30865;DHT22;17574;49.418;11.038;2023-03-20T01:27:16;9.70;97.00
30865;DHT22;17574;49.418;11.038;2023-03-20T01:29:43;9.60;96.40
30865;DHT22;17574;49.418;11.038;2023-03-20T01:32:11;9.60;96.50
30865;DHT22;17574;49.418;11.038;2023-03-20T01:34:38;9.50;96.30
30865;DHT22;17574;49.418;11.038;2023-03-20T01:37:05;9.60;96.10
30865;DHT22;17574;49.418;11.038;2023-03-20T01:39:35;9.60;95.90
30865;DHT22;17574;49.418;11.038;2023-03-20T01:42:02;9.60;95.70
30865;DHT22;17574;49.418;11.038;2023-03-20T01:44:32;9.60;95.60
30865;DHT22;17574;49.418;11.038;2023-03-20T01:46:59;9.60;96.20
30865;DHT22;17574;49.418;11.038;2023-03-20T01:51:54;9.60;96.40
30865;DHT22;17574;49.418;11.038;2023-03-20T01:54:36;9.60;96.60
30865;DHT22;17574;49.418;11.038;2023-03-20T01:57:09;9.60;96.70
30865;DHT22;17574;49.418;11.038;2023-03-20T01:59:37;9.60;97.00
30865;DHT22;17574;49.418;11.038;2023-03-20T02:02:06;9.80;97.10
30865;DHT22;17574;49.418;11.038;2023-03-20T02:10:35;9.50;97.20
30865;DHT22;17574;49.418;11.038;2023-03-20T02:13:02;9.50;97.50
30865;DHT22;17574;49.418;11.038;2023-03-20T02:15:29;9.50;97.40
30865;DHT22;17574;49.418;11.038;2023-03-20T02:17:56;9.60;97.40
30865;DHT22;17574;49.418;11.038;2023-03-20T02:20:49;9.50;96.90
30865;DHT22;17574;49.418;11.038;2023-03-20T02:28:18;9.50;96.70
30865;DHT22;17574;49.418;11.038;2023-03-20T02:34:39;9.50;96.30
30865;DHT22;17574;49.418;11.038;2023-03-20T02:42:18;9.50;96.90
30865;DHT22;17574;49.418;11.038;2023-03-20T02:52:40;9.50;96.90
30865;DHT22;17574;49.418;11.038;2023-03-20T02:55:31;9.50;97.10
30865;DHT22;17574;49.418;11.038;2023-03-20T02:58:07;9.50;97.30
30865;DHT22;17574;49.418;11.038;2023-03-20T03:00:41;9.50;97.40
30865;DHT22;17574;49.418;11.038;2023-03-20T03:03:14;9.40;97.60
30865;DHT22;17574;49.418;11.038;2023-03-20T03:05:44;9.40;97.70
30865;DHT22;17574;49.418;11.038;2023-03-20T03:08:13;9.40;97.50
30865;DHT22;17574;49.418;11.038;2023-03-20T03:10:45;9.40;97.60
30865;DHT22;17574;49.418;11.038;2023-03-20T03:13:14;9.40;97.60
30865;DHT22;17574;49.418;11.038;2023-03-20T03:15:44;9.40;97.60
30865;DHT22;17574;49.418;11.038;2023-03-20T03:18:13;9.30;97.50
30865;DHT22;17574;49.418;11.038;2023-03-20T03:20:41;9.30;97.30
30865;DHT22;17574;49.418;11.038;2023-03-20T03:23:08;9.30;97.30
30865;DHT22;17574;49.418;11.038;2023-03-20T03:25:40;9.30;96.90
30865;DHT22;17574;49.418;11.038;2023-03-20T03:28:18;9.30;96.90
30865;DHT22;17574;49.418;11.038;2023-03-20T03:30:48;9.20;96.80
30865;DHT22;17574;49.418;11.038;2023-03-20T03:35:45;9.30;96.70
30865;DHT22;17574;49.418;11.038;2023-03-20T03:38:31;9.30;96.20
30865;DHT22;17574;49.418;11.038;2023-03-20T03:41:21;9.30;96.00
30865;DHT22;17574;49.418;11.038;2023-03-20T03:43:57;9.20;95.60
30865;DHT22;17574;49.418;11.038;2023-03-20T03:48:54;9.10;95.50
30865;DHT22;17574;49.418;11.038;2023-03-20T03:51:22;9.20;95.20
30865;DHT22;17574;49.418;11.038;2023-03-20T03:54:00;9.10;95.50
30865;DHT22;17574;49.418;11.038;2023-03-20T03:56:29;9.10;95.90
30865;DHT22;17574;49.418;11.038;2023-03-20T03:58:59;9.10;96.00
30865;DHT22;17574;49.418;11.038;2023-03-20T04:01:26;9.10;96.00
30865;DHT22;17574;49.418;11.038;2023-03-20T04:03:55;9.10;95.90
30865;DHT22;17574;49.418;11.038;2023-03-20T04:06:23;9.10;96.30
30865;DHT22;17574;49.418;11.038;2023-03-20T04:08:51;9.10;96.40
30865;DHT22;17574;49.418;11.038;2023-03-20T04:11:19;9.10;96.40
30865;DHT22;17574;49.418;11.038;2023-03-20T04:13:46;9.10;96.30
30865;DHT22;17574;49.418;11.038;2023-03-20T04:16:13;9.10;96.50
30865;DHT22;17574;49.418;11.038;2023-03-20T04:18:40;9.10;96.40
30865;DHT22;17574;49.418;11.038;2023-03-20T04:21:07;9.10;96.30
30865;DHT22;17574;49.418;11.038;2023-03-20T04:23:34;9.10;96.60
30865;DHT22;17574;49.418;11.038;2023-03-20T04:26:01;9.10;96.20
30865;DHT22;17574;49.418;11.038;2023-03-20T04:28:27;9.10;96.10
30865;DHT22;17574;49.418;11.038;2023-03-20T04:30:54;9.10;96.00
30865;DHT22;17574;49.418;11.038;2023-03-20T04:33:22;9.10;96.00
30865;DHT22;17574;49.418;11.038;2023-03-20T04:35:49;9.10;95.90
30865;DHT22;17574;49.418;11.038;2023-03-20T04:38:16;9.00;95.80
30865;DHT22;17574;49.418;11.038;2023-03-20T04:40:43;9.10;96.00
30865;DHT22;17574;49.418;11.038;2023-03-20T04:43:10;9.00;95.90
30865;DHT22;17574;49.418;11.038;2023-03-20T04:45:36;8.90;96.00
30865;DHT22;17574;49.418;11.038;2023-03-20T04:48:04;8.90;96.10
30865;DHT22;17574;49.418;11.038;2023-03-20T04:50:31;9.00;96.00
30865;DHT22;17574;49.418;11.038;2023-03-20T04:52:58;9.00;95.60
30865;DHT22;17574;49.418;11.038;2023-03-20T04:55:25;8.90;95.30
30865;DHT22;17574;49.418;11.038;2023-03-20T04:57:52;8.90;95.60
30865;DHT22;17574;49.418;11.038;2023-03-20T05:00:18;9.00;95.60
30865;DHT22;17574;49.418;11.038;2023-03-20T05:02:45;9.00;95.20
30865;DHT22;17574;49.418;11.038;2023-03-20T05:05:12;9.00;95.10
30865;DHT22;17574;49.418;11.038;2023-03-20T05:07:39;9.00;95.10
30865;DHT22;17574;49.418;11.038;2023-03-20T05:10:05;9.00;95.30
30865;DHT22;17574;49.418;11.038;2023-03-20T05:12:32;9.00;95.40
30865;DHT22;17574;49.418;11.038;2023-03-20T05:14:59;9.00;95.70
30865;DHT22;17574;49.418;11.038;2023-03-20T05:17:25;9.00;95.90
30865;DHT22;17574;49.418;11.038;2023-03-20T05:19:52;9.00;95.90
30865;DHT22;17574;49.418;11.038;2023-03-20T05:22:19;9.00;95.20
30865;DHT22;17574;49.418;11.038;2023-03-20T05:24:45;9.00;95.10
30865;DHT22;17574;49.418;11.038;2023-03-20T05:27:12;8.90;95.00
30865;DHT22;17574;49.418;11.038;2023-03-20T05:29:38;9.10;95.10
30865;DHT22;17574;49.418;11.038;2023-03-20T05:32:05;9.10;95.50
30865;DHT22;17574;49.418;11.038;2023-03-20T05:34:32;9.00;95.40
30865;DHT22;17574;49.418;11.038;2023-03-20T05:36:58;9.00;95.60
30865;DHT22;17574;49.418;11.038;2023-03-20T05:39:25;9.00;95.50
30865;DHT22;17574;49.418;11.038;2023-03-20T05:41:51;9.00;95.30
30865;DHT22;17574;49.418;11.038;2023-03-20T05:44:18;9.10;95.10
30865;DHT22;17574;49.418;11.038;2023-03-20T05:46:45;9.10;95.10
30865;DHT22;17574;49.418;11.038;2023-03-20T05:49:11;9.10;95.10
30865;DHT22;17574;49.418;11.038;2023-03-20T05:51:38;9.10;95.10
30865;DHT22;17574;49.418;11.038;2023-03-20T05:54:04;9.20;95.10
30865;DHT22;17574;49.418;11.038;2023-03-20T05:56:31;9.10;95.10
30865;DHT22;17574;49.418;11.038;2023-03-20T05:58:58;9.20;95.10
30865;DHT22;17574;49.418;11.038;2023-03-20T06:01:24;9.20;95.10
30865;DHT22;17574;49.418;11.038;2023-03-20T06:03:51;9.20;95.40
30865;DHT22;17574;49.418;11.038;2023-03-20T06:06:18;9.30;95.20
30865;DHT22;17574;49.418;11.038;2023-03-20T06:08:44;10.90;99.90
30865;DHT22;17574;49.418;11.038;2023-03-20T06:11:12;12.60;81.60
30865;DHT22;17574;49.418;11.038;2023-03-20T06:13:38;12.00;56.40
30865;DHT22;17574;49.418;11.038;2023-03-20T06:16:05;11.50;61.40
30865;DHT22;17574;49.418;11.038;2023-03-20T06:18:32;11.10;66.50
30865;DHT22;17574;49.418;11.038;2023-03-20T06:20:58;10.80;72.70
30865;DHT22;17574;49.418;11.038;2023-03-20T06:23:25;10.60;77.90
30865;DHT22;17574;49.418;11.038;2023-03-20T06:25:52;10.40;80.10
30865;DHT22;17574;49.418;11.038;2023-03-20T06:28:18;10.20;84.40
30865;DHT22;17574;49.418;11.038;2023-03-20T06:30:45;10.10;85.70
30865;DHT22;17574;49.418;11.038;2023-03-20T06:33:11;10.10;87.40
30865;DHT22;17574;49.418;11.038;2023-03-20T06:35:38;10.00;88.70
30865;DHT22;17574;49.418;11.038;2023-03-20T06:38:05;10.00;90.40
30865;DHT22;17574;49.418;11.038;2023-03-20T06:40:32;10.00;91.00
30865;DHT22;17574;49.418;11.038;2023-03-20T06:42:58;10.00;90.80
30865;DHT22;17574;49.418;11.038;2023-03-20T06:45:25;9.90;91.40
30865;DHT22;17574;49.418;11.038;2023-03-20T06:47:51;10.00;91.50
30865;DHT22;17574;49.418;11.038;2023-03-20T06:50:18;10.00;91.50
30865;DHT22;17574;49.418;11.038;2023-03-20T06:52:45;10.00;91.50
30865;DHT22;17574;49.418;11.038;2023-03-20T06:55:12;10.10;91.60
30865;DHT22;17574;49.418;11.038;2023-03-20T06:57:38;10.10;91.60
30865;DHT22;17574;49.418;11.038;2023-03-20T07:00:05;10.10;91.10
30865;DHT22;17574;49.418;11.038;2023-03-20T07:02:33;10.20;90.90
30865;DHT22;17574;49.418;11.038;2023-03-20T07:04:59;10.30;90.70
30865;DHT22;17574;49.418;11.038;2023-03-20T07:07:26;10.10;90.70
30865;DHT22;17574;49.418;11.038;2023-03-20T07:09:53;10.20;90.30
30865;DHT22;17574;49.418;11.038;2023-03-20T07:12:20;10.30;90.20
30865;DHT22;17574;49.418;11.038;2023-03-20T07:14:48;10.30;89.80
30865;DHT22;17574;49.418;11.038;2023-03-20T07:17:15;10.30;89.80
30865;DHT22;17574;49.418;11.038;2023-03-20T07:19:42;10.40;88.90
30865;DHT22;17574;49.418;11.038;2023-03-20T07:22:10;10.50;87.20
30865;DHT22;17574;49.418;11.038;2023-03-20T07:24:42;10.50;86.00
30865;DHT22;17574;49.418;11.038;2023-03-20T07:27:12;10.60;86.10
30865;DHT22;17574;49.418;11.038;2023-03-20T07:29:39;10.70;86.10
30865;DHT22;17574;49.418;11.038;2023-03-20T07:32:05;10.80;86.20
30865;DHT22;17574;49.418;11.038;2023-03-20T07:34:32;10.90;83.90
30865;DHT22;17574;49.418;11.038;2023-03-20T07:36:58;11.00;83.20
30865;DHT22;17574;49.418;11.038;2023-03-20T07:39:25;11.10;79.40
30865;DHT22;17574;49.418;11.038;2023-03-20T07:41:52;11.20;78.40
30865;DHT22;17574;49.418;11.038;2023-03-20T07:44:19;11.30;76.60
30865;DHT22;17574;49.418;11.038;2023-03-20T07:46:46;11.30;71.10
30865;DHT22;17574;49.418;11.038;2023-03-20T07:49:13;11.30;74.20
30865;DHT22;17574;49.418;11.038;2023-03-20T07:51:40;11.50;70.60
30865;DHT22;17574;49.418;11.038;2023-03-20T07:54:06;11.50;70.20
30865;DHT22;17574;49.418;11.038;2023-03-20T07:56:33;11.60;70.30
30865;DHT22;17574;49.418;11.038;2023-03-20T07:58:59;11.70;65.90
30865;DHT22;17574;49.418;11.038;2023-03-20T08:01:26;11.70;64.00
30865;DHT22;17574;49.418;11.038;2023-03-20T08:03:53;11.70;62.60
30865;DHT22;17574;49.418;11.038;2023-03-20T08:06:20;11.80;63.60
30865;DHT22;17574;49.418;11.038;2023-03-20T08:08:47;12.00;59.00
30865;DHT22;17574;49.418;11.038;2023-03-20T08:11:17;11.80;59.40
30865;DHT22;17574;49.418;11.038;2023-03-20T08:13:44;12.00;59.20
30865;DHT22;17574;49.418;11.038;2023-03-20T08:16:11;12.00;58.20
30865;DHT22;17574;49.418;11.038;2023-03-20T08:18:38;12.00;57.60
30865;DHT22;17574;49.418;11.038;2023-03-20T08:21:04;12.20;56.20
30865;DHT22;17574;49.418;11.038;2023-03-20T08:23:31;12.30;52.00
30865;DHT22;17574;49.418;11.038;2023-03-20T08:25:57;12.50;52.20
30865;DHT22;17574;49.418;11.038;2023-03-20T08:28:24;12.60;51.00
30865;DHT22;17574;49.418;11.038;2023-03-20T08:31:11;12.70;52.40
30865;DHT22;17574;49.418;11.038;2023-03-20T08:33:37;12.70;46.30
30865;DHT22;17574;49.418;11.038;2023-03-20T08:36:04;12.80;42.50
30865;DHT22;17574;49.418;11.038;2023-03-20T08:38:31;12.90;41.70
30865;DHT22;17574;49.418;11.038;2023-03-20T08:40:58;12.90;39.10
30865;DHT22;17574;49.418;11.038;2023-03-20T08:43:25;12.90;41.70
30865;DHT22;17574;49.418;11.038;2023-03-20T08:45:51;13.10;41.90
30865;DHT22;17574;49.418;11.038;2023-03-20T08:48:18;13.20;37.90
30865;DHT22;17574;49.418;11.038;2023-03-20T08:50:45;13.30;38.50
30865;DHT22;17574;49.418;11.038;2023-03-20T08:53:11;13.40;34.80
30865;DHT22;17574;49.418;11.038;2023-03-20T08:55:38;13.50;31.00
30865;DHT22;17574;49.418;11.038;2023-03-20T08:58:04;13.50;33.70
30865;DHT22;17574;49.418;11.038;2023-03-20T09:00:31;13.50;31.10
30865;DHT22;17574;49.418;11.038;2023-03-20T09:02:58;13.50;31.00
30865;DHT22;17574;49.418;11.038;2023-03-20T09:05:24;13.60;31.20
30865;DHT22;17574;49.418;11.038;2023-03-20T09:07:51;13.70;29.70
30865;DHT22;17574;49.418;11.038;2023-03-20T09:10:18;13.80;28.80
30865;DHT22;17574;49.418;11.038;2023-03-20T09:12:44;13.80;26.90
30865;DHT22;17574;49.418;11.038;2023-03-20T09:15:11;13.80;24.90
30865;DHT22;17574;49.418;11.038;2023-03-20T09:17:38;13.80;24.30
30865;DHT22;17574;49.418;11.038;2023-03-20T09:20:05;13.80;23.60
30865;DHT22;17574;49.418;11.038;2023-03-20T09:22:32;13.80;25.60
30865;DHT22;17574;49.418;11.038;2023-03-20T09:24:58;13.90;24.80
30865;DHT22;17574;49.418;11.038;2023-03-20T09:27:25;13.80;25.00
30865;DHT22;17574;49.418;11.038;2023-03-20T09:29:51;14.00;22.90
30865;DHT22;17574;49.418;11.038;2023-03-20T09:32:18;14.20;24.10
30865;DHT22;17574;49.418;11.038;2023-03-20T09:34:45;14.50;22.10
30865;DHT22;17574;49.418;11.038;2023-03-20T09:37:11;14.60;20.30
30865;DHT22;17574;49.418;11.038;2023-03-20T09:39:38;14.80;18.20
30865;DHT22;17574;49.418;11.038;2023-03-20T09:47:22;15.00;18.40
30865;DHT22;17574;49.418;11.038;2023-03-20T09:52:29;14.90;18.30
30865;DHT22;17574;49.418;11.038;2023-03-20T09:54:58;15.00;18.00
30865;DHT22;17574;49.418;11.038;2023-03-20T09:57:39;15.00;18.20
30865;DHT22;17574;49.418;11.038;2023-03-20T10:00:13;15.00;16.20
30865;DHT22;17574;49.418;11.038;2023-03-20T10:05:20;15.00;16.30
30865;DHT22;17574;49.418;11.038;2023-03-20T10:07:47;15.10;16.30
30865;DHT22;17574;49.418;11.038;2023-03-20T10:10:14;15.20;13.80
30865;DHT22;17574;49.418;11.038;2023-03-20T10:15:29;15.10;13.70
30865;DHT22;17574;49.418;11.038;2023-03-20T10:18:01;15.00;14.80
30865;DHT22;17574;49.418;11.038;2023-03-20T10:20:34;15.00;13.70
30865;DHT22;17574;49.418;11.038;2023-03-20T10:25:34;15.00;14.80
30865;DHT22;17574;49.418;11.038;2023-03-20T10:28:05;15.00;13.80
30865;DHT22;17574;49.418;11.038;2023-03-20T10:35:45;15.00;13.60
30865;DHT22;17574;49.418;11.038;2023-03-20T10:41:00;15.20;11.60
30865;DHT22;17574;49.418;11.038;2023-03-20T10:43:28;15.40;10.70
30865;DHT22;17574;49.418;11.038;2023-03-20T10:46:06;15.50;11.00
30865;DHT22;17574;49.418;11.038;2023-03-20T10:48:46;15.60;9.30
30865;DHT22;17574;49.418;11.038;2023-03-20T10:51:14;15.60;8.20
30865;DHT22;17574;49.418;11.038;2023-03-20T10:56:19;16.10;4.70
30865;DHT22;17574;49.418;11.038;2023-03-20T10:58:56;16.20;1.30
30865;DHT22;17574;49.418;11.038;2023-03-20T11:01:23;16.50;1.00
30865;DHT22;17574;49.418;11.038;2023-03-20T11:03:50;16.60;1.00
30865;DHT22;17574;49.418;11.038;2023-03-20T11:06:17;16.40;1.90
30865;DHT22;17574;49.418;11.038;2023-03-20T11:08:46;16.30;1.00
30865;DHT22;17574;49.418;11.038;2023-03-20T11:11:13;16.30;1.00
30865;DHT22;17574;49.418;11.038;2023-03-20T11:13:47;16.10;2.10
30865;DHT22;17574;49.418;11.038;2023-03-20T11:16:19;16.10;1.50
30865;DHT22;17574;49.418;11.038;2023-03-20T11:18:46;16.00;1.00
30865;DHT22;17574;49.418;11.038;2023-03-20T11:21:24;16.00;1.40
30865;DHT22;17574;49.418;11.038;2023-03-20T11:23:51;16.20;1.00
30865;DHT22;17574;49.418;11.038;2023-03-20T11:26:26;16.40;1.70
30865;DHT22;17574;49.418;11.038;2023-03-20T11:28:56;16.50;1.00
30865;DHT22;17574;49.418;11.038;2023-03-20T11:31:27;16.60;1.00
30865;DHT22;17574;49.418;11.038;2023-03-20T11:34:00;16.60;1.00
30865;DHT22;17574;49.418;11.038;2023-03-20T11:36:34;16.70;1.00
30865;DHT22;17574;49.418;11.038;2023-03-20T11:39:10;16.70;1.00
30865;DHT22;17574;49.418;11.038;2023-03-20T11:41:45;16.70;1.00
30865;DHT22;17574;49.418;11.038;2023-03-20T11:44:19;16.40;1.00
30865;DHT22;17574;49.418;11.038;2023-03-20T11:47:21;16.30;1.00
30865;DHT22;17574;49.418;11.038;2023-03-20T11:52:34;16.10;2.40
30865;DHT22;17574;49.418;11.038;2023-03-20T11:55:03;16.20;1.00
30865;DHT22;17574;49.418;11.038;2023-03-20T12:00:20;16.30;1.00
30865;DHT22;17574;49.418;11.038;2023-03-20T12:02:45;16.60;1.00
30865;DHT22;17574;49.418;11.038;2023-03-20T12:05:28;16.70;1.00
30865;DHT22;17574;49.418;11.038;2023-03-20T12:08:17;16.90;1.00
30865;DHT22;17574;49.418;11.038;2023-03-20T12:10:43;17.00;1.00
30865;DHT22;17574;49.418;11.038;2023-03-20T12:13:12;17.20;1.00
30865;DHT22;17574;49.418;11.038;2023-03-20T12:15:41;16.80;1.00
30865;DHT22;17574;49.418;11.038;2023-03-20T12:20:44;16.80;1.00
30865;DHT22;17574;49.418;11.038;2023-03-20T12:23:12;16.80;1.00
30865;DHT22;17574;49.418;11.038;2023-03-20T12:28:27;16.60;1.00
30865;DHT22;17574;49.418;11.038;2023-03-20T12:31:20;16.70;1.00
30865;DHT22;17574;49.418;11.038;2023-03-20T12:33:48;16.90;1.00
30865;DHT22;17574;49.418;11.038;2023-03-20T12:36:18;17.00;1.00
30865;DHT22;17574;49.418;11.038;2023-03-20T12:38:46;17.10;1.00
30865;DHT22;17574;49.418;11.038;2023-03-20T12:41:14;17.20;1.00
30865;DHT22;17574;49.418;11.038;2023-03-20T12:48:51;16.60;1.00
30865;DHT22;17574;49.418;11.038;2023-03-20T12:51:23;16.40;1.00
30865;DHT22;17574;49.418;11.038;2023-03-20T13:02:18;15.90;1.00
30865;DHT22;17574;49.418;11.038;2023-03-20T13:07:21;15.70;3.30
30865;DHT22;17574;49.418;11.038;2023-03-20T13:12:47;15.60;4.30
30865;DHT22;17574;49.418;11.038;2023-03-20T13:15:30;15.50;4.30
30865;DHT22;17574;49.418;11.038;2023-03-20T13:18:11;15.50;4.30
30865;DHT22;17574;49.418;11.038;2023-03-20T13:25:49;15.20;7.00
30865;DHT22;17574;49.418;11.038;2023-03-20T13:28:22;15.20;6.20
30865;DHT22;17574;49.418;11.038;2023-03-20T13:30:52;15.20;4.60
30865;DHT22;17574;49.418;11.038;2023-03-20T13:35:49;15.40;4.20
30865;DHT22;17574;49.418;11.038;2023-03-20T13:38:22;15.70;4.40
30865;DHT22;17574;49.418;11.038;2023-03-20T13:40:52;15.90;3.10
30865;DHT22;17574;49.418;11.038;2023-03-20T13:43:22;16.10;1.00
30865;DHT22;17574;49.418;11.038;2023-03-20T13:45:53;16.00;1.50
30865;DHT22;17574;49.418;11.038;2023-03-20T13:48:33;15.90;2.00
30865;DHT22;17574;49.418;11.038;2023-03-20T13:51:07;15.90;1.60
30865;DHT22;17574;49.418;11.038;2023-03-20T14:01:30;15.70;1.00
30865;DHT22;17574;49.418;11.038;2023-03-20T14:04:01;15.70;1.10
30865;DHT22;17574;49.418;11.038;2023-03-20T14:08:55;15.80;1.00
30865;DHT22;17574;49.418;11.038;2023-03-20T14:13:50;15.70;1.00
30865;DHT22;17574;49.418;11.038;2023-03-20T14:16:19;15.80;1.00
30865;DHT22;17574;49.418;11.038;2023-03-20T14:18:46;15.90;1.00
30865;DHT22;17574;49.418;11.038;2023-03-20T14:21:18;16.10;1.00
30865;DHT22;17574;49.418;11.038;2023-03-20T14:23:47;16.30;1.00
30865;DHT22;17574;49.418;11.038;2023-03-20T14:31:36;16.80;1.00
30865;DHT22;17574;49.418;11.038;2023-03-20T14:34:17;16.80;1.00
30865;DHT22;17574;49.418;11.038;2023-03-20T14:39:35;16.70;1.00
30865;DHT22;17574;49.418;11.038;2023-03-20T14:47:35;16.10;1.00
30865;DHT22;17574;49.418;11.038;2023-03-20T14:50:08;16.10;1.00
30865;DHT22;17574;49.418;11.038;2023-03-20T14:55:14;15.80;1.00
30865;DHT22;17574;49.418;11.038;2023-03-20T14:57:53;15.80;1.00
30865;DHT22;17574;49.418;11.038;2023-03-20T15:00:24;15.70;1.00
30865;DHT22;17574;49.418;11.038;2023-03-20T15:02:52;15.60;1.00
30865;DHT22;17574;49.418;11.038;2023-03-20T15:05:26;15.50;1.00
30865;DHT22;17574;49.418;11.038;2023-03-20T15:07:55;15.60;1.00
30865;DHT22;17574;49.418;11.038;2023-03-20T15:10:23;15.40;1.70
30865;DHT22;17574;49.418;11.038;2023-03-20T15:12:50;15.40;1.40
30865;DHT22;17574;49.418;11.038;2023-03-20T15:17:50;15.40;1.20
30865;DHT22;17574;49.418;11.038;2023-03-20T15:20:22;15.40;1.70
30865;DHT22;17574;49.418;11.038;2023-03-20T15:22:59;15.40;1.20
30865;DHT22;17574;49.418;11.038;2023-03-20T15:25:35;15.50;1.30
30865;DHT22;17574;49.418;11.038;2023-03-20T15:28:06;15.40;1.60
30865;DHT22;17574;49.418;11.038;2023-03-20T15:30:35;15.30;2.50
30865;DHT22;17574;49.418;11.038;2023-03-20T15:33:03;15.30;4.10
30865;DHT22;17574;49.418;11.038;2023-03-20T15:35:30;15.20;4.00
30865;DHT22;17574;49.418;11.038;2023-03-20T15:37:57;15.30;2.80
30865;DHT22;17574;49.418;11.038;2023-03-20T15:40:29;15.30;3.40
30865;DHT22;17574;49.418;11.038;2023-03-20T15:45:45;14.90;3.80
30865;DHT22;17574;49.418;11.038;2023-03-20T15:48:19;14.90;3.80
30865;DHT22;17574;49.418;11.038;2023-03-20T15:50:50;14.80;3.80
30865;DHT22;17574;49.418;11.038;2023-03-20T15:53:19;14.70;4.50
30865;DHT22;17574;49.418;11.038;2023-03-20T15:55:51;14.80;5.80
30865;DHT22;17574;49.418;11.038;2023-03-20T15:58:23;14.80;6.40
30865;DHT22;17574;49.418;11.038;2023-03-20T16:00:50;14.80;5.60
30865;DHT22;17574;49.418;11.038;2023-03-20T16:03:17;14.70;6.60
30865;DHT22;17574;49.418;11.038;2023-03-20T16:05:46;14.70;7.10
30865;DHT22;17574;49.418;11.038;2023-03-20T16:08:24;14.60;8.50
30865;DHT22;17574;49.418;11.038;2023-03-20T16:10:56;14.60;8.50
30865;DHT22;17574;49.418;11.038;2023-03-20T16:13:23;14.40;8.40
30865;DHT22;17574;49.418;11.038;2023-03-20T16:15:50;14.40;9.80
30865;DHT22;17574;49.418;11.038;2023-03-20T16:18:18;14.30;10.20
30865;DHT22;17574;49.418;11.038;2023-03-20T16:20:47;14.20;10.70
30865;DHT22;17574;49.418;11.038;2023-03-20T16:23:18;14.20;12.00
30865;DHT22;17574;49.418;11.038;2023-03-20T16:25:49;14.20;13.00
30865;DHT22;17574;49.418;11.038;2023-03-20T16:28:16;14.20;13.10
30865;DHT22;17574;49.418;11.038;2023-03-20T16:30:42;14.00;12.90
30865;DHT22;17574;49.418;11.038;2023-03-20T16:33:11;13.90;13.20
30865;DHT22;17574;49.418;11.038;2023-03-20T16:35:42;13.80;12.70
30865;DHT22;17574;49.418;11.038;2023-03-20T16:38:26;13.70;12.70
30865;DHT22;17574;49.418;11.038;2023-03-20T16:40:54;13.70;13.80
30865;DHT22;17574;49.418;11.038;2023-03-20T16:43:22;13.70;13.40
30865;DHT22;17574;49.418;11.038;2023-03-20T16:45:54;13.60;13.80
30865;DHT22;17574;49.418;11.038;2023-03-20T16:48:25;13.50;12.50
30865;DHT22;17574;49.418;11.038;2023-03-20T16:50:59;13.40;12.40
30865;DHT22;17574;49.418;11.038;2023-03-20T16:53:28;13.30;12.30
30865;DHT22;17574;49.418;11.038;2023-03-20T16:55:56;13.20;12.30
30865;DHT22;17574;49.418;11.038;2023-03-20T16:58:28;13.20;12.30
30865;DHT22;17574;49.418;11.038;2023-03-20T17:01:04;13.10;12.20
30865;DHT22;17574;49.418;11.038;2023-03-20T17:06:08;13.00;12.40
30865;DHT22;17574;49.418;11.038;2023-03-20T17:08:52;12.90;12.20
30865;DHT22;17574;49.418;11.038;2023-03-20T17:11:30;12.90;13.70
30865;DHT22;17574;49.418;11.038;2023-03-20T17:13:58;13.00;27.90
30865;DHT22;17574;49.418;11.038;2023-03-20T17:16:25;13.80;29.20
30865;DHT22;17574;49.418;11.038;2023-03-20T17:19:04;14.30;22.50
30865;DHT22;17574;49.418;11.038;2023-03-20T17:21:31;14.80;22.90
30865;DHT22;17574;49.418;11.038;2023-03-20T17:23:58;15.20;21.60
30865;DHT22;17574;49.418;11.038;2023-03-20T17:26:25;15.50;15.10
30865;DHT22;17574;49.418;11.038;2023-03-20T17:28:51;15.70;15.30
30865;DHT22;17574;49.418;11.038;2023-03-20T17:31:18;15.80;13.80
30865;DHT22;17574;49.418;11.038;2023-03-20T17:33:45;15.80;7.80
30865;DHT22;17574;49.418;11.038;2023-03-20T17:36:17;15.90;11.60
30865;DHT22;17574;49.418;11.038;2023-03-20T17:38:44;15.90;9.50
30865;DHT22;17574;49.418;11.038;2023-03-20T17:41:14;15.90;10.60
30865;DHT22;17574;49.418;11.038;2023-03-20T17:43:41;15.20;1.00
30865;DHT22;17574;49.418;11.038;2023-03-20T17:46:15;14.40;3.40
30865;DHT22;17574;49.418;11.038;2023-03-20T17:48:42;13.80;6.10
30865;DHT22;17574;49.418;11.038;2023-03-20T17:51:09;13.50;8.90
30865;DHT22;17574;49.418;11.038;2023-03-20T17:53:36;13.20;12.30
30865;DHT22;17574;49.418;11.038;2023-03-20T17:56:04;12.80;14.90